Time;durP1;ratioP1;P1;durP2;ratioP2;P2;SDS_P1;SDS_P2;PMS_P1;PMS_P2;Temp;Humidity;BMP_temperature;BMP_pressure;BME280_temperature;BME280_humidity;BME280_pressure;Samples;Min_cycle;Max_cycle;Signal;HPM_P1;HPM_P2
2022/06/13 00:01:19;;;;;;;12.13;2.42;;;14.20;79.80;;;;;;4987631;28;20053;-72
2022/06/13 00:03:48;;;;;;;9.38;2.53;;;14.10;80.10;;;;;;5035144;28;20056;-72
2022/06/13 00:06:16;;;;;;;13.82;2.80;;;14.10;80.70;;;;;;5033858;28;20391;-73
2022/06/13 00:08:44;;;;;;;10.73;2.20;;;14.00;80.70;;;;;;5034483;28;20064;-72
2022/06/13 00:11:14;;;;;;;10.52;2.33;;;14.00;81.00;;;;;;5034944;28;20452;-72
2022/06/13 00:13:44;;;;;;;9.95;2.33;;;13.90;81.30;;;;;;5033845;28;20064;-72
2022/06/13 00:16:12;;;;;;;12.90;2.17;;;13.80;81.50;;;;;;5017222;28;20061;-72
2022/06/13 00:18:47;;;;;;;14.95;2.58;;;13.80;81.60;;;;;;5033757;28;20046;-72
2022/06/13 00:21:24;;;;;;;13.18;2.10;;;13.70;81.80;;;;;;5032350;28;20068;-73
2022/06/13 00:23:51;;;;;;;15.50;2.33;;;13.70;82.60;;;;;;5034382;28;20049;-73
2022/06/13 00:26:21;;;;;;;9.90;2.35;;;13.60;82.40;;;;;;5033596;28;20049;-72
2022/06/13 00:28:50;;;;;;;12.75;2.28;;;13.60;82.60;;;;;;5037514;28;20049;-72
2022/06/13 00:31:19;;;;;;;12.90;2.67;;;13.50;83.00;;;;;;5038797;28;20064;-72
2022/06/13 00:33:46;;;;;;;15.40;2.45;;;13.50;83.20;;;;;;5037419;28;20049;-72
2022/06/13 00:36:15;;;;;;;11.95;2.70;;;13.50;83.30;;;;;;5038102;28;20080;-73
2022/06/13 00:38:43;;;;;;;12.77;2.28;;;13.50;83.80;;;;;;5037700;28;20050;-73
2022/06/13 00:41:12;;;;;;;;;;;13.40;83.70;;;;;;5053494;28;20052;-72
2022/06/13 00:43:41;;;;;;;10.52;2.38;;;13.40;85.00;;;;;;5037659;28;20240;-72
2022/06/13 00:46:36;;;;;;;14.43;2.40;;;13.40;84.30;;;;;;5036767;28;20205;-72
2022/06/13 00:49:11;;;;;;;12.15;2.65;;;13.30;85.60;;;;;;5036102;28;20056;-72
2022/06/13 00:51:46;;;;;;;11.43;2.65;;;13.30;84.80;;;;;;5038428;28;20065;-72
2022/06/13 00:54:16;;;;;;;15.23;2.75;;;13.30;85.10;;;;;;5037135;28;20057;-72
2022/06/13 00:56:45;;;;;;;10.77;2.35;;;13.20;85.20;;;;;;5037905;28;20046;-72
2022/06/13 00:59:17;;;;;;;9.07;2.30;;;13.20;85.20;;;;;;5036024;28;20045;-72
2022/06/13 01:01:45;;;;;;;13.60;2.22;;;13.20;85.60;;;;;;5028713;28;20054;-72
2022/06/13 01:04:13;;;;;;;;;;;13.10;85.80;;;;;;5018834;28;20049;-72
2022/06/13 01:06:47;;;;;;;12.80;2.55;;;13.10;87.60;;;;;;5017071;28;19928;-72
2022/06/13 01:09:17;;;;;;;11.70;2.45;;;13.10;86.40;;;;;;5018042;28;20050;-72
2022/06/13 01:11:50;;;;;;;6.85;2.33;;;13.00;86.40;;;;;;5018611;28;20372;-72
2022/06/13 01:14:42;;;;;;;10.73;2.53;;;13.00;86.60;;;;;;5017032;28;20046;-72
2022/06/13 01:17:21;;;;;;;11.18;2.40;;;13.00;87.60;;;;;;5018092;28;20371;-72
2022/06/13 01:20:01;;;;;;;10.18;2.80;;;13.00;87.30;;;;;;5016787;28;20057;-72
2022/06/13 01:23:07;;;;;;;11.48;2.20;;;13.00;86.90;;;;;;5017830;28;20061;-72
2022/06/13 01:25:54;;;;;;;9.77;2.30;;;12.90;88.30;;;;;;5017758;28;20500;-72
2022/06/13 01:29:06;;;;;;;10.23;2.38;;;12.90;87.30;;;;;;5017854;28;20054;-73
2022/06/13 01:31:44;;;;;;;12.20;2.03;;;12.80;89.10;;;;;;5017891;28;20050;-73
2022/06/13 01:34:18;;;;;;;;;;;12.80;88.50;;;;;;5016820;28;20380;-72
2022/06/13 01:37:15;;;;;;;9.95;2.63;;;12.80;89.70;;;;;;5000844;28;19932;-72
2022/06/13 01:39:51;;;;;;;13.27;2.50;;;12.80;89.20;;;;;;5015582;28;20045;-72
2022/06/13 01:42:43;;;;;;;12.07;2.85;;;12.70;88.40;;;;;;5017565;28;20046;-72
2022/06/13 01:45:14;;;;;;;11.70;2.30;;;12.70;89.80;;;;;;5017673;28;20054;-72
2022/06/13 01:48:08;;;;;;;15.88;2.53;;;12.70;88.60;;;;;;5016298;28;20064;-72
2022/06/13 01:50:51;;;;;;;12.75;2.63;;;12.60;89.50;;;;;;5000280;28;20045;-71
2022/06/13 01:53:58;;;;;;;9.45;2.28;;;12.60;89.90;;;;;;4999472;28;20056;-73
2022/06/13 01:56:45;;;;;;;10.13;2.50;;;12.50;90.40;;;;;;5017290;28;20053;-74
2022/06/13 01:59:33;;;;;;;10.68;2.05;;;12.50;90.20;;;;;;4999030;28;20037;-73
2022/06/13 02:02:16;;;;;;;9.60;2.28;;;12.50;90.30;;;;;;5019344;28;20368;-74
2022/06/13 02:05:07;;;;;;;11.00;2.53;;;12.40;90.40;;;;;;5037143;28;20046;-74
2022/06/13 02:07:39;;;;;;;11.02;2.40;;;12.40;90.70;;;;;;5034685;28;20042;-74
2022/06/13 02:10:30;;;;;;;20.55;3.08;;;12.30;90.50;;;;;;5036675;28;20037;-73
2022/06/13 02:13:06;;;;;;;11.35;2.90;;;12.30;90.50;;;;;;5035785;28;20042;-74
2022/06/13 02:15:40;;;;;;;13.73;2.78;;;12.30;91.10;;;;;;5036851;28;20045;-74
2022/06/13 02:18:18;;;;;;;15.77;3.20;;;12.20;91.30;;;;;;5036740;28;20379;-74
2022/06/13 02:20:49;;;;;;;17.67;3.60;;;12.20;91.40;;;;;;5034868;28;20058;-73
2022/06/13 02:23:23;;;;;;;14.73;2.92;;;12.20;91.90;;;;;;5036690;28;20053;-73
2022/06/13 02:25:59;;;;;;;14.38;3.33;;;12.20;91.90;;;;;;5035385;28;20056;-73
2022/06/13 02:28:43;;;;;;;15.10;3.35;;;12.10;92.40;;;;;;5052026;28;20045;-74
2022/06/13 02:31:16;;;;;;;13.90;3.47;;;12.10;93.00;;;;;;5036299;28;20392;-74
2022/06/13 02:33:51;;;;;;;13.02;3.70;;;12.10;92.50;;;;;;5035187;28;20050;-73
2022/06/13 02:36:37;;;;;;;18.10;3.88;;;12.00;92.80;;;;;;5036552;28;20367;-73
2022/06/13 02:39:10;;;;;;;19.45;3.70;;;12.00;93.30;;;;;;5036178;28;20483;-74
2022/06/13 02:41:46;;;;;;;17.67;4.03;;;12.00;93.00;;;;;;5035678;28;20041;-74
2022/06/13 02:44:27;;;;;;;16.27;3.60;;;11.90;93.40;;;;;;5036403;28;20379;-73
2022/06/13 02:47:01;;;;;;;14.75;3.72;;;11.80;93.70;;;;;;5034026;28;20049;-74
2022/06/13 02:49:36;;;;;;;15.50;3.83;;;11.80;93.70;;;;;;5036325;28;20041;-73
2022/06/13 02:52:23;;;;;;;17.63;3.72;;;11.80;94.10;;;;;;5036426;28;20041;-74
2022/06/13 02:54:55;;;;;;;13.85;3.75;;;11.80;94.20;;;;;;5034789;28;20048;-73
2022/06/13 02:57:58;;;;;;;16.50;3.78;;;11.80;94.20;;;;;;5035761;28;20049;-73
2022/06/13 03:00:31;;;;;;;16.73;3.75;;;11.80;94.90;;;;;;5033751;28;20042;-73
2022/06/13 03:03:11;;;;;;;17.83;3.50;;;11.80;94.40;;;;;;5016491;28;20064;-73
2022/06/13 03:06:06;;;;;;;15.07;3.50;;;11.70;94.40;;;;;;5015939;28;20380;-73
2022/06/13 03:08:48;;;;;;;13.30;3.78;;;11.70;95.40;;;;;;5016343;28;20042;-74
2022/06/13 03:11:38;;;;;;;20.00;3.78;;;11.70;95.40;;;;;;5015926;28;20041;-73
2022/06/13 03:14:35;;;;;;;17.92;4.13;;;11.70;95.60;;;;;;5014601;28;20045;-73
2022/06/13 03:17:05;;;;;;;17.08;4.30;;;11.70;95.30;;;;;;5015512;28;20042;-73
2022/06/13 03:19:46;;;;;;;17.80;4.35;;;11.70;95.30;;;;;;5014483;28;20045;-74
2022/06/13 03:22:40;;;;;;;14.30;3.75;;;11.70;95.40;;;;;;4998540;28;20042;-73
2022/06/13 03:25:37;;;;;;;20.77;4.18;;;11.60;96.20;;;;;;5016097;28;20356;-73
2022/06/13 03:28:15;;;;;;;24.38;4.35;;;11.60;96.10;;;;;;5014559;28;20057;-73
2022/06/13 03:30:48;;;;;;;19.65;4.43;;;11.60;95.80;;;;;;5015296;28;20037;-73
2022/06/13 03:33:40;;;;;;;20.25;4.40;;;11.60;96.10;;;;;;5014506;28;20056;-73
2022/06/13 03:36:22;;;;;;;16.52;4.30;;;11.50;96.20;;;;;;5015457;28;20046;-74
2022/06/13 03:39:17;;;;;;;17.77;4.75;;;11.50;96.80;;;;;;4998567;28;20042;-73
2022/06/13 03:41:53;;;;;;;21.50;4.40;;;11.50;96.70;;;;;;5015129;28;20046;-73
2022/06/13 03:44:29;;;;;;;16.15;4.32;;;11.40;96.90;;;;;;5015179;28;20052;-74
2022/06/13 03:47:00;;;;;;;20.67;4.20;;;11.40;97.30;;;;;;5014088;28;20056;-73
2022/06/13 03:49:42;;;;;;;19.10;4.63;;;11.40;97.00;;;;;;5015125;28;20131;-73
2022/06/13 03:52:12;;;;;;;18.85;4.43;;;11.40;97.20;;;;;;4998520;28;20052;-73
2022/06/13 03:54:45;;;;;;;16.42;4.35;;;11.40;97.20;;;;;;4997023;28;20058;-73
2022/06/13 03:57:24;;;;;;;16.70;4.22;;;11.40;97.30;;;;;;4997970;28;20050;-74
2022/06/13 04:00:01;;;;;;;19.08;4.68;;;11.30;97.80;;;;;;5014059;28;20052;-74
2022/06/13 04:02:33;;;;;;;19.15;4.88;;;11.30;97.60;;;;;;5014193;28;20469;-73
2022/06/13 04:05:01;;;;;;;15.57;4.22;;;11.40;97.80;;;;;;5015276;28;20046;-74
2022/06/13 04:07:32;;;;;;;16.00;4.63;;;11.40;98.00;;;;;;5013843;28;20050;-73
2022/06/13 04:10:12;;;;;;;15.50;4.63;;;11.40;98.70;;;;;;5014984;28;20041;-74
2022/06/13 04:12:51;;;;;;;17.50;4.80;;;11.40;98.20;;;;;;4996925;28;20054;-73
2022/06/13 04:15:38;;;;;;;22.48;4.20;;;11.40;98.40;;;;;;4998102;28;20050;-74
2022/06/13 04:18:35;;;;;;;21.73;4.43;;;11.40;98.40;;;;;;4998016;28;20050;-74
2022/06/13 04:21:39;;;;;;;22.20;5.03;;;11.30;98.80;;;;;;5013802;28;20473;-73
2022/06/13 04:24:52;;;;;;;13.65;4.53;;;11.40;99.10;;;;;;5015053;28;20064;-73
2022/06/13 04:27:40;;;;;;;21.38;4.40;;;11.40;99.20;;;;;;4953944;29;20051;-74
2022/06/13 04:30:17;;;;;;;22.35;4.40;;;11.40;98.70;;;;;;5030443;28;20049;-74
2022/06/13 04:33:02;;;;;;;22.25;4.60;;;11.40;98.50;;;;;;5013892;28;20046;-73
2022/06/13 04:35:31;;;;;;;22.35;4.57;;;11.40;98.70;;;;;;4997551;28;20046;-74
2022/06/13 04:38:02;;;;;;;20.02;4.07;;;11.40;98.90;;;;;;5015057;28;20045;-74
2022/06/13 04:40:33;;;;;;;19.55;4.30;;;11.40;98.80;;;;;;4996800;28;20127;-74
2022/06/13 04:43:05;;;;;;;20.63;4.43;;;11.40;98.80;;;;;;5014825;28;20050;-74
2022/06/13 04:45:45;;;;;;;17.55;4.15;;;11.40;99.00;;;;;;5014760;28;20066;-74
2022/06/13 04:48:14;;;;;;;20.85;4.40;;;11.50;99.20;;;;;;4996514;28;20042;-73
2022/06/13 04:50:55;;;;;;;19.48;4.45;;;11.40;98.90;;;;;;5014784;28;20371;-74
2022/06/13 04:53:27;;;;;;;21.73;4.30;;;11.50;99.00;;;;;;5013683;28;20499;-74
2022/06/13 04:55:55;;;;;;;21.30;4.10;;;11.50;98.90;;;;;;5014815;28;20046;-74
2022/06/13 04:58:32;;;;;;;17.60;4.18;;;11.50;99.00;;;;;;5014358;28;20049;-74
2022/06/13 05:01:04;;;;;;;18.83;3.70;;;11.60;99.10;;;;;;5013248;28;20045;-74
2022/06/13 05:03:37;;;;;;;14.15;3.80;;;11.60;98.90;;;;;;5014783;28;20384;-74
2022/06/13 05:06:12;;;;;;;16.40;3.75;;;11.60;98.90;;;;;;5013480;28;20376;-74
2022/06/13 05:08:41;;;;;;;19.08;4.20;;;11.70;99.10;;;;;;5014362;28;20058;-74
2022/06/13 05:11:14;;;;;;;16.65;4.47;;;11.70;98.90;;;;;;5014184;28;20046;-74
2022/06/13 05:13:42;;;;;;;21.42;4.38;;;11.70;98.90;;;;;;4998183;28;20049;-74
2022/06/13 05:16:26;;;;;;;16.83;3.70;;;11.70;98.80;;;;;;5017300;28;20045;-75
2022/06/13 05:18:59;;;;;;;19.42;3.75;;;11.70;98.80;;;;;;5018227;28;20372;-74
2022/06/13 05:21:44;;;;;;;21.08;4.28;;;11.80;98.80;;;;;;5016682;28;20049;-74
2022/06/13 05:24:22;;;;;;;16.25;4.00;;;11.80;98.80;;;;;;5001014;28;20045;-74
2022/06/13 05:26:50;;;;;;;15.63;4.35;;;11.80;99.00;;;;;;5016847;28;20048;-74
2022/06/13 05:29:17;;;;;;;14.13;4.07;;;11.90;98.70;;;;;;5000718;28;20050;-74
2022/06/13 05:31:45;;;;;;;14.00;3.58;;;11.90;98.70;;;;;;5000225;28;20050;-74
2022/06/13 05:34:32;;;;;;;16.23;3.53;;;12.00;98.70;;;;;;5016753;28;20479;-74
2022/06/13 05:37:01;;;;;;;17.65;4.22;;;12.00;98.80;;;;;;5017957;28;20510;-74
2022/06/13 05:39:29;;;;;;;;;;;12.00;98.60;;;;;;5017025;28;20290;-73
2022/06/13 05:41:56;;;;;;;;;;;12.00;98.90;;;;;;5017829;28;19932;-73
2022/06/13 05:44:24;;;;;;;14.98;3.47;;;12.10;99.00;;;;;;5017380;28;19928;-74
2022/06/13 05:46:51;;;;;;;18.17;3.70;;;12.10;98.50;;;;;;5016084;28;20050;-75
2022/06/13 05:49:19;;;;;;;14.48;3.40;;;12.10;98.40;;;;;;5017411;28;20046;-74
2022/06/13 05:51:47;;;;;;;17.92;3.88;;;12.10;98.40;;;;;;5017309;28;20037;-74
2022/06/13 05:54:15;;;;;;;17.10;3.67;;;12.20;98.40;;;;;;4999001;28;20046;-75
2022/06/13 05:56:42;;;;;;;19.67;4.15;;;12.20;98.40;;;;;;5017080;28;20057;-74
2022/06/13 05:59:10;;;;;;;19.60;3.70;;;12.20;98.60;;;;;;5016896;28;20126;-76
2022/06/13 06:01:39;;;;;;;17.27;3.05;;;12.20;98.60;;;;;;5012883;28;20510;-74
2022/06/13 06:04:07;;;;;;;15.27;3.58;;;12.30;98.50;;;;;;5036924;28;20072;-75
2022/06/13 06:06:36;;;;;;;15.02;3.95;;;12.30;98.30;;;;;;5018501;28;20072;-75
2022/06/13 06:09:06;;;;;;;23.92;4.00;;;12.40;98.20;;;;;;5036831;28;20049;-74
2022/06/13 06:11:36;;;;;;;14.63;3.08;;;12.40;98.10;;;;;;5037221;28;20455;-74
2022/06/13 06:14:06;;;;;;;15.55;3.50;;;12.50;98.10;;;;;;5035758;28;20455;-75
2022/06/13 06:16:34;;;;;;;12.73;3.20;;;12.60;98.20;;;;;;5036037;28;20055;-74
2022/06/13 06:19:02;;;;;;;15.20;2.83;;;12.60;97.90;;;;;;5035713;28;20049;-75
2022/06/13 06:21:29;;;;;;;12.65;2.70;;;12.70;97.70;;;;;;5035289;28;20049;-75
2022/06/13 06:23:57;;;;;;;12.13;2.72;;;12.70;97.60;;;;;;5036510;28;20168;-75
2022/06/13 06:26:27;;;;;;;11.90;2.55;;;13.40;97.60;;;;;;5034153;28;20076;-75
2022/06/13 06:28:55;;;;;;;12.93;2.47;;;12.80;97.40;;;;;;5036836;28;20057;-75
2022/06/13 06:31:23;;;;;;;;;;;12.90;97.20;;;;;;5036019;28;20041;-75
2022/06/13 06:33:50;;;;;;;9.40;1.83;;;13.00;96.90;;;;;;5035380;28;19921;-73
2022/06/13 06:36:20;;;;;;;12.93;2.17;;;13.10;96.90;;;;;;5036214;28;20045;-75
2022/06/13 06:38:49;;;;;;;7.15;1.90;;;13.20;96.70;;;;;;5019513;28;20049;-74
2022/06/13 06:41:16;;;;;;;;;;;13.20;96.40;;;;;;5018204;28;20053;-74
2022/06/13 06:43:44;;;;;;;6.22;1.63;;;13.30;96.10;;;;;;5035488;28;19932;-73
2022/06/13 06:46:14;;;;;;;5.95;1.80;;;13.40;96.00;;;;;;5034193;28;20479;-74
2022/06/13 06:48:43;;;;;;;11.30;1.90;;;13.40;95.80;;;;;;5034930;28;20060;-73
2022/06/13 06:51:13;;;;;;;7.15;1.65;;;13.50;95.50;;;;;;5034796;28;20336;-74
2022/06/13 07:02:03;;;;;;;9.70;2.17;;;13.70;94.40;;;;;;5018207;28;20057;-73
2022/06/13 07:04:30;;;;;;;9.75;2.15;;;13.70;94.70;;;;;;5034596;28;20475;-74
2022/06/13 07:06:58;;;;;;;9.07;2.25;;;13.70;94.40;;;;;;5034426;28;20050;-75
2022/06/13 07:09:26;;;;;;;10.40;2.00;;;13.80;94.10;;;;;;5034619;28;20053;-73
2022/06/13 07:11:54;;;;;;;8.20;1.83;;;13.80;94.10;;;;;;5035150;28;20046;-75
2022/06/13 07:14:25;;;;;;;9.32;1.65;;;13.90;93.80;;;;;;5033379;28;20049;-74
2022/06/13 07:16:53;;;;;;;9.50;1.70;;;13.90;93.80;;;;;;5035360;28;20490;-74
2022/06/13 07:19:24;;;;;;;8.43;1.90;;;14.00;93.70;;;;;;5034231;28;20041;-74
2022/06/13 07:21:52;;;;;;;6.25;2.13;;;14.00;93.60;;;;;;5035205;28;20163;-72
2022/06/13 07:24:20;;;;;;;10.68;1.88;;;14.10;93.10;;;;;;5034317;28;20387;-72
2022/06/13 07:26:49;;;;;;;7.47;1.98;;;14.20;92.40;;;;;;5034123;28;20050;-72
2022/06/13 07:29:17;;;;;;;4.47;1.80;;;14.20;93.00;;;;;;5034166;28;20041;-71
2022/06/13 07:31:47;;;;;;;7.72;2.17;;;14.30;92.90;;;;;;5035222;28;20056;-72
2022/06/13 07:34:18;;;;;;;7.07;1.90;;;14.30;92.60;;;;;;5033421;28;20383;-73
2022/06/13 07:36:49;;;;;;;11.80;2.13;;;14.30;92.50;;;;;;5049917;28;20037;-73
2022/06/13 07:39:17;;;;;;;7.20;1.92;;;14.40;92.70;;;;;;5054796;28;20049;-73
2022/06/13 07:41:45;;;;;;;10.15;2.30;;;14.40;92.70;;;;;;5055522;28;20479;-73
2022/06/13 07:44:16;;;;;;;;;;;14.50;92.80;;;;;;5055630;28;20067;-74
2022/06/13 07:46:46;;;;;;;5.13;1.70;;;14.60;92.10;;;;;;5054260;28;19940;-72
2022/06/13 07:49:14;;;;;;;8.80;1.77;;;14.70;92.50;;;;;;5055384;28;20041;-74
2022/06/13 07:51:43;;;;;;;6.15;1.80;;;14.80;92.40;;;;;;5055357;28;20456;-74
2022/06/13 07:54:10;;;;;;;;;;;14.90;92.10;;;;;;5053821;28;20074;-72
2022/06/13 07:56:38;;;;;;;8.82;1.70;;;15.10;91.10;;;;;;5054933;28;19931;-75
2022/06/13 07:59:07;;;;;;;;;;;15.20;91.30;;;;;;5054562;28;20049;-74
2022/06/13 08:01:36;;;;;;;7.90;1.65;;;15.30;90.70;;;;;;5046558;28;19921;-73
2022/06/13 08:04:04;;;;;;;4.95;1.40;;;15.40;91.00;;;;;;5035464;28;20053;-71
2022/06/13 08:06:32;;;;;;;5.93;1.25;;;15.50;90.70;;;;;;5034179;28;20129;-72
2022/06/13 08:09:00;;;;;;;6.45;1.58;;;15.50;90.10;;;;;;5017678;28;20490;-73
2022/06/13 08:11:35;;;;;;;8.80;1.55;;;15.60;90.20;;;;;;5017345;28;20061;-74
2022/06/13 08:14:06;;;;;;;8.10;1.70;;;15.60;89.30;;;;;;5016802;28;20053;-74
2022/06/13 08:16:36;;;;;;;3.90;1.20;;;15.70;89.60;;;;;;5035360;28;20049;-75
2022/06/13 08:19:05;;;;;;;7.13;1.50;;;15.80;88.70;;;;;;5035318;28;20050;-75
2022/06/13 08:21:35;;;;;;;4.90;1.35;;;16.00;88.20;;;;;;5033456;28;20052;-75
2022/06/13 08:24:04;;;;;;;5.40;1.40;;;16.20;87.80;;;;;;5034671;28;20041;-77
2022/06/13 08:26:41;;;;;;;4.32;1.20;;;16.40;87.80;;;;;;5015996;28;20057;-75
2022/06/13 08:29:08;;;;;;;6.35;1.35;;;16.60;86.80;;;;;;5017382;28;20360;-74
2022/06/13 08:31:37;;;;;;;5.60;1.35;;;16.80;84.00;;;;;;5017105;28;20053;-76
2022/06/13 08:34:04;;;;;;;;;;;16.90;85.20;;;;;;5033784;28;20042;-75
2022/06/13 08:36:32;;;;;;;6.63;1.23;;;17.10;83.80;;;;;;5016852;28;19923;-76
2022/06/13 08:38:59;;;;;;;7.70;1.58;;;17.20;84.90;;;;;;5016944;28;20053;-77
2022/06/13 08:41:29;;;;;;;3.67;1.30;;;17.20;84.50;;;;;;5015910;28;20054;-75
2022/06/13 08:44:08;;;;;;;5.70;1.40;;;17.10;83.80;;;;;;5034660;28;20061;-77
2022/06/13 08:46:58;;;;;;;6.00;1.40;;;17.10;83.20;;;;;;5033503;28;20064;-75
2022/06/13 08:49:43;;;;;;;5.95;1.13;;;17.00;83.20;;;;;;5019792;28;20052;-76
2022/06/13 08:52:23;;;;;;;4.30;1.20;;;17.20;83.10;;;;;;5038206;28;20395;-75
2022/06/13 08:54:58;;;;;;;4.18;1.27;;;17.60;82.40;;;;;;5037250;28;20046;-74
2022/06/13 08:57:29;;;;;;;4.25;1.30;;;17.90;81.00;;;;;;5038099;28;20082;-72
2022/06/13 09:00:09;;;;;;;3.85;1.10;;;18.00;82.00;;;;;;5036906;28;20372;-76
2022/06/13 09:02:48;;;;;;;4.35;1.05;;;18.10;80.90;;;;;;5040216;28;20053;-76
2022/06/13 09:05:23;;;;;;;4.75;0.90;;;18.10;78.50;;;;;;5004688;28;20069;-76
2022/06/13 09:08:04;;;;;;;5.13;1.52;;;17.10;79.00;;;;;;5020014;28;20053;-76
2022/06/13 09:10:47;;;;;;;6.47;1.00;;;17.90;79.50;;;;;;5038560;28;20045;-76
2022/06/13 09:13:19;;;;;;;4.25;1.20;;;18.00;79.70;;;;;;5020130;28;20042;-75
2022/06/13 09:16:16;;;;;;;4.93;1.20;;;18.10;79.30;;;;;;5021038;28;20056;-75
2022/06/13 09:18:50;;;;;;;3.65;1.15;;;18.30;77.20;;;;;;5020349;28;20045;-76
2022/06/13 09:21:34;;;;;;;4.45;1.15;;;18.50;77.50;;;;;;5037022;28;20049;-76
2022/06/13 09:24:30;;;;;;;6.30;1.20;;;18.50;77.80;;;;;;5038354;28;20041;-75
2022/06/13 09:27:14;;;;;;;4.57;1.08;;;18.50;78.10;;;;;;5035803;28;20049;-75
2022/06/13 09:29:54;;;;;;;5.78;1.10;;;18.60;77.70;;;;;;5037038;28;20064;-75
2022/06/13 09:32:51;;;;;;;3.53;1.13;;;18.50;77.80;;;;;;5020061;28;20376;-76
2022/06/13 09:35:22;;;;;;;5.10;1.10;;;18.50;78.50;;;;;;5016571;28;20473;-74
2022/06/13 09:38:13;;;;;;;2.95;1.00;;;18.40;76.90;;;;;;5037481;28;20452;-75
2022/06/13 09:41:04;;;;;;;3.92;1.08;;;18.50;77.40;;;;;;5036440;28;20041;-76
2022/06/13 09:43:38;;;;;;;4.70;0.90;;;18.80;75.90;;;;;;5036905;28;20049;-74
2022/06/13 09:46:18;;;;;;;5.60;1.20;;;19.00;76.00;;;;;;5036407;28;20060;-74
2022/06/13 09:49:21;;;;;;;5.43;1.42;;;19.20;74.10;;;;;;5037204;28;20053;-74
2022/06/13 09:51:54;;;;;;;18.77;4.13;;;19.20;72.80;;;;;;4997167;28;20053;-74
2022/06/13 09:54:28;;;;;;;6.88;1.70;;;19.30;75.30;;;;;;5019085;28;20338;-76
2022/06/13 09:56:58;;;;;;;5.85;1.10;;;19.30;74.40;;;;;;5036901;28;20045;-75
2022/06/13 09:59:37;;;;;;;7.55;1.50;;;19.40;74.10;;;;;;5034815;28;20045;-76
2022/06/13 10:02:13;;;;;;;6.38;1.20;;;19.60;74.50;;;;;;5036934;28;20456;-76
2022/06/13 10:04:45;;;;;;;5.07;1.35;;;19.70;74.60;;;;;;5036684;28;20050;-74
2022/06/13 10:07:21;;;;;;;5.13;1.30;;;19.80;73.20;;;;;;5036001;28;20096;-76
2022/06/13 10:10:10;;;;;;;7.22;1.30;;;19.80;73.60;;;;;;5036827;28;20056;-75
2022/06/13 10:13:01;;;;;;;4.60;1.30;;;19.60;73.20;;;;;;4982209;28;20076;-75
2022/06/13 10:15:56;;;;;;;6.78;1.30;;;19.50;72.70;;;;;;5036680;28;20041;-76
2022/06/13 10:18:42;;;;;;;6.00;1.10;;;19.50;72.50;;;;;;5036625;28;20049;-75
2022/06/13 10:21:43;;;;;;;3.60;1.08;;;19.70;73.40;;;;;;5019320;28;20467;-78
2022/06/13 10:24:24;;;;;;;3.13;1.20;;;19.70;71.30;;;;;;5036589;28;20467;-75
2022/06/13 10:26:56;;;;;;;4.10;1.38;;;18.60;70.70;;;;;;5035372;28;20451;-76
2022/06/13 10:29:46;;;;;;;6.05;1.30;;;19.80;71.10;;;;;;5019274;28;20066;-74
2022/06/13 10:32:41;;;;;;;9.02;2.35;;;19.60;70.80;;;;;;5036746;28;20045;-76
2022/06/13 10:35:28;;;;;;;6.60;1.67;;;19.60;71.40;;;;;;5036694;28;20045;-74
2022/06/13 10:38:21;;;;;;;5.53;1.45;;;19.80;70.00;;;;;;5037004;28;20050;-75
2022/06/13 10:40:49;;;;;;;7.88;1.30;;;20.00;68.60;;;;;;5035624;28;20037;-74
2022/06/13 10:43:17;;;;;;;;;;;20.10;70.10;;;;;;5037235;28;20046;-75
2022/06/13 10:45:45;;;;;;;6.28;1.20;;;20.20;69.50;;;;;;5036189;28;19921;-75
2022/06/13 10:48:30;;;;;;;5.70;1.17;;;20.30;69.70;;;;;;5035946;28;20368;-76
2022/06/13 10:51:01;;;;;;;4.50;1.20;;;20.40;70.50;;;;;;5019267;28;20042;-76
2022/06/13 10:53:36;;;;;;;2.88;1.05;;;20.40;70.20;;;;;;5018194;28;20456;-75
2022/06/13 10:56:09;;;;;;;5.90;1.40;;;20.40;70.40;;;;;;5019306;28;20053;-73
2022/06/13 10:58:46;;;;;;;5.32;1.40;;;20.60;70.00;;;;;;5035856;28;20486;-74
2022/06/13 11:01:25;;;;;;;5.38;1.30;;;20.50;68.50;;;;;;5017426;28;20375;-75
2022/06/13 11:04:17;;;;;;;5.00;1.33;;;20.50;70.00;;;;;;5036253;28;20050;-76
2022/06/13 11:06:50;;;;;;;7.20;1.40;;;20.80;69.40;;;;;;5035030;28;20060;-77
2022/06/13 11:09:36;;;;;;;5.15;1.45;;;21.00;68.60;;;;;;5018260;28;20038;-75
2022/06/13 11:12:26;;;;;;;5.40;1.42;;;21.20;68.80;;;;;;5036168;28;20356;-76
2022/06/13 11:24:01;;;;;;;4.88;1.13;;;21.50;67.80;;;;;;5033189;28;20476;-75
2022/06/13 11:29:25;;;;;;;6.85;1.60;;;21.40;67.40;;;;;;5034848;28;20049;-75
2022/06/13 11:32:00;;;;;;;4.70;1.25;;;21.30;67.70;;;;;;5034983;28;20456;-75
2022/06/13 11:34:49;;;;;;;7.20;1.30;;;21.30;68.70;;;;;;5033967;28;20563;-74
2022/06/13 11:37:23;;;;;;;4.68;1.40;;;21.40;67.70;;;;;;5034889;28;20456;-74
2022/06/13 11:39:53;;;;;;;4.97;1.50;;;21.60;66.70;;;;;;5034153;28;20045;-74
2022/06/13 11:42:29;;;;;;;11.27;2.78;;;21.80;67.00;;;;;;5017675;28;20060;-75
2022/06/13 11:45:26;;;;;;;4.60;1.60;;;21.90;66.20;;;;;;5018307;28;20377;-74
2022/06/13 11:47:53;;;;;;;5.22;1.58;;;22.00;66.30;;;;;;5033819;28;20053;-74
2022/06/13 11:50:25;;;;;;;3.65;1.13;;;21.90;66.40;;;;;;5034834;28;20050;-75
2022/06/13 11:55:56;;;;;;;3.70;1.60;;;21.60;66.00;;;;;;5035107;28;20045;-74
2022/06/13 11:58:30;;;;;;;4.85;1.55;;;21.20;66.60;;;;;;5034678;28;20460;-75
2022/06/13 12:01:25;;;;;;;4.80;1.33;;;20.90;66.50;;;;;;5016523;28;20492;-75
2022/06/13 12:04:07;;;;;;;4.35;1.27;;;20.60;66.30;;;;;;5034730;28;20052;-74
2022/06/13 12:06:46;;;;;;;5.13;1.40;;;20.60;67.70;;;;;;5016593;28;20463;-74
2022/06/13 12:09:20;;;;;;;3.25;1.40;;;20.80;67.40;;;;;;5034796;28;20068;-74
2022/06/13 12:11:55;;;;;;;7.13;1.65;;;21.00;66.50;;;;;;5034601;28;20065;-74
2022/06/13 12:14:25;;;;;;;2.67;1.42;;;21.20;66.30;;;;;;5033791;28;20045;-76
2022/06/13 12:17:17;;;;;;;5.90;1.38;;;21.30;66.10;;;;;;5034741;28;20364;-74
2022/06/13 12:19:48;;;;;;;4.50;1.48;;;21.60;64.80;;;;;;5016210;28;20056;-74
2022/06/13 12:22:39;;;;;;;5.97;1.38;;;21.80;65.90;;;;;;5034162;28;20125;-75
2022/06/13 12:25:23;;;;;;;4.38;1.30;;;22.00;65.90;;;;;;5017499;28;20064;-74
2022/06/13 12:28:14;;;;;;;3.90;1.30;;;22.10;64.10;;;;;;5033241;28;20053;-75
2022/06/13 12:30:55;;;;;;;4.50;1.48;;;22.10;64.90;;;;;;5034355;28;20494;-74
2022/06/13 12:33:44;;;;;;;6.57;1.50;;;22.00;64.30;;;;;;5033274;28;20054;-76
2022/06/13 12:36:24;;;;;;;4.05;1.60;;;21.80;64.90;;;;;;5034366;28;20056;-76
2022/06/13 12:38:55;;;;;;;5.28;1.30;;;21.70;65.60;;;;;;5017198;28;20045;-75
2022/06/13 12:41:32;;;;;;;6.97;1.70;;;21.60;65.20;;;;;;5015921;28;20041;-74
2022/06/13 12:44:07;;;;;;;4.80;1.50;;;21.70;64.70;;;;;;5034501;28;20368;-74
2022/06/13 12:46:57;;;;;;;3.75;1.40;;;21.80;65.10;;;;;;5033325;28;20045;-74
2022/06/13 12:49:40;;;;;;;3.95;1.20;;;22.10;65.20;;;;;;5034383;28;20049;-75
2022/06/13 12:52:19;;;;;;;5.05;1.40;;;22.40;63.80;;;;;;5034173;28;20478;-75
2022/06/13 12:55:05;;;;;;;4.70;1.67;;;22.60;63.80;;;;;;5015582;28;20400;-74
2022/06/13 12:57:54;;;;;;;5.25;1.45;;;22.60;63.40;;;;;;5033695;28;20376;-75
2022/06/13 13:00:39;;;;;;;5.60;1.50;;;22.50;64.00;;;;;;5033542;28;20052;-75
2022/06/13 13:03:06;;;;;;;7.30;1.50;;;22.20;63.60;;;;;;5035877;28;20483;-75
2022/06/13 13:06:03;;;;;;;7.00;1.63;;;21.90;64.30;;;;;;5034050;28;20057;-74
2022/06/13 13:09:05;;;;;;;4.68;1.80;;;21.80;65.20;;;;;;5033962;28;20076;-74
2022/06/13 13:11:44;;;;;;;6.72;1.58;;;21.90;64.10;;;;;;5033832;28;20388;-74
2022/06/13 13:14:32;;;;;;;6.53;1.65;;;22.20;64.40;;;;;;5033055;28;20463;-74
2022/06/13 13:17:24;;;;;;;6.32;1.48;;;22.60;63.40;;;;;;5034004;28;20042;-71
2022/06/13 13:19:54;;;;;;;5.50;1.95;;;23.10;63.20;;;;;;5033147;28;20045;-74
2022/06/13 13:22:27;;;;;;;5.05;1.70;;;23.20;62.70;;;;;;5011882;28;20372;-78
2022/06/13 13:25:21;;;;;;;3.92;1.55;;;23.30;63.20;;;;;;5036825;28;20053;-76
2022/06/13 13:28:04;;;;;;;5.63;1.40;;;23.30;62.10;;;;;;5032764;28;20053;-74
2022/06/13 13:31:05;;;;;;;6.45;1.88;;;23.20;63.10;;;;;;5031241;28;20037;-77
2022/06/13 13:34:11;;;;;;;5.78;1.83;;;23.20;63.00;;;;;;5022381;28;20373;-73
2022/06/13 13:37:19;;;;;;;8.45;2.10;;;23.60;61.50;;;;;;5018730;28;20042;-73
2022/06/13 13:40:16;;;;;;;6.88;1.80;;;25.60;59.60;;;;;;5036074;28;20038;-74
2022/06/13 13:43:13;;;;;;;9.82;1.98;;;27.60;59.10;;;;;;5028814;28;20049;-73
2022/06/13 13:45:51;;;;;;;4.85;1.80;;;29.60;55.10;;;;;;5019781;28;20053;-74
2022/06/13 13:48:30;;;;;;;5.50;2.55;;;29.40;56.10;;;;;;5037853;28;20072;-73
2022/06/13 13:51:10;;;;;;;9.10;1.77;;;29.70;53.10;;;;;;5019768;28;20049;-73
2022/06/13 13:53:49;;;;;;;8.20;1.80;;;29.70;54.20;;;;;;5036545;28;20053;-74
2022/06/13 13:56:39;;;;;;;5.13;1.63;;;30.60;54.60;;;;;;5037207;28;20041;-74
2022/06/13 13:59:12;;;;;;;4.32;1.63;;;30.80;52.80;;;;;;5000981;28;20068;-74
2022/06/13 14:02:11;;;;;;;6.57;1.90;;;30.70;53.20;;;;;;5025016;28;20367;-74